sensor_id;sensor_type;location;lat;lon;timestamp;P1;durP1;ratioP1;P2;durP2;ratioP2
84476;SDS011;74700;43.228;0.108;2023-12-20T00:01:48;14.90;;;11.70;;
84476;SDS011;74700;43.228;0.108;2023-12-20T00:04:14;17.38;;;12.57;;
84476;SDS011;74700;43.228;0.108;2023-12-20T00:06:40;21.25;;;13.57;;
84476;SDS011;74700;43.228;0.108;2023-12-20T00:09:06;15.57;;;11.85;;
84476;SDS011;74700;43.228;0.108;2023-12-20T00:11:32;17.67;;;11.80;;
84476;SDS011;74700;43.228;0.108;2023-12-20T00:13:58;15.52;;;11.27;;
84476;SDS011;74700;43.228;0.108;2023-12-20T00:16:24;18.20;;;11.48;;
84476;SDS011;74700;43.228;0.108;2023-12-20T00:18:50;15.20;;;11.07;;
84476;SDS011;74700;43.228;0.108;2023-12-20T00:21:16;15.02;;;11.57;;
84476;SDS011;74700;43.228;0.108;2023-12-20T00:23:42;12.77;;;9.90;;
84476;SDS011;74700;43.228;0.108;2023-12-20T00:26:08;14.07;;;10.60;;
84476;SDS011;74700;43.228;0.108;2023-12-20T00:28:34;13.25;;;9.55;;
84476;SDS011;74700;43.228;0.108;2023-12-20T00:31:00;12.50;;;9.40;;
84476;SDS011;74700;43.228;0.108;2023-12-20T00:33:27;11.43;;;9.05;;
84476;SDS011;74700;43.228;0.108;2023-12-20T00:35:53;13.38;;;10.07;;
84476;SDS011;74700;43.228;0.108;2023-12-20T00:38:19;16.95;;;9.55;;
84476;SDS011;74700;43.228;0.108;2023-12-20T00:40:45;17.25;;;8.68;;
84476;SDS011;74700;43.228;0.108;2023-12-20T00:43:11;11.18;;;8.52;;
84476;SDS011;74700;43.228;0.108;2023-12-20T00:45:37;13.70;;;9.50;;
84476;SDS011;74700;43.228;0.108;2023-12-20T00:48:04;15.88;;;8.75;;
84476;SDS011;74700;43.228;0.108;2023-12-20T00:50:30;11.40;;;8.63;;
84476;SDS011;74700;43.228;0.108;2023-12-20T00:52:56;10.52;;;8.45;;
84476;SDS011;74700;43.228;0.108;2023-12-20T00:55:22;10.43;;;8.35;;
84476;SDS011;74700;43.228;0.108;2023-12-20T00:57:48;11.52;;;9.40;;
84476;SDS011;74700;43.228;0.108;2023-12-20T01:00:14;12.55;;;8.02;;
84476;SDS011;74700;43.228;0.108;2023-12-20T01:02:40;12.35;;;8.27;;
84476;SDS011;74700;43.228;0.108;2023-12-20T01:05:06;9.80;;;7.80;;
84476;SDS011;74700;43.228;0.108;2023-12-20T01:07:34;12.27;;;8.68;;
84476;SDS011;74700;43.228;0.108;2023-12-20T01:10:00;12.13;;;8.10;;
84476;SDS011;74700;43.228;0.108;2023-12-20T01:12:26;11.15;;;7.20;;
84476;SDS011;74700;43.228;0.108;2023-12-20T01:14:52;11.25;;;8.18;;
84476;SDS011;74700;43.228;0.108;2023-12-20T01:17:18;12.38;;;7.78;;
84476;SDS011;74700;43.228;0.108;2023-12-20T01:19:44;10.52;;;7.28;;
84476;SDS011;74700;43.228;0.108;2023-12-20T01:22:10;9.90;;;7.00;;
84476;SDS011;74700;43.228;0.108;2023-12-20T01:24:36;11.02;;;6.72;;
84476;SDS011;74700;43.228;0.108;2023-12-20T01:27:02;8.88;;;7.00;;
84476;SDS011;74700;43.228;0.108;2023-12-20T01:29:28;8.82;;;6.70;;
84476;SDS011;74700;43.228;0.108;2023-12-20T01:31:54;12.50;;;7.88;;
84476;SDS011;74700;43.228;0.108;2023-12-20T01:34:20;9.73;;;7.43;;
84476;SDS011;74700;43.228;0.108;2023-12-20T01:36:46;8.25;;;6.85;;
84476;SDS011;74700;43.228;0.108;2023-12-20T01:39:12;10.00;;;7.85;;
84476;SDS011;74700;43.228;0.108;2023-12-20T01:41:38;9.70;;;7.35;;
84476;SDS011;74700;43.228;0.108;2023-12-20T01:44:05;14.18;;;8.43;;
84476;SDS011;74700;43.228;0.108;2023-12-20T01:46:31;14.15;;;8.63;;
84476;SDS011;74700;43.228;0.108;2023-12-20T01:48:57;13.55;;;8.50;;
84476;SDS011;74700;43.228;0.108;2023-12-20T01:51:23;11.05;;;7.43;;
84476;SDS011;74700;43.228;0.108;2023-12-20T01:53:49;9.38;;;8.27;;
84476;SDS011;74700;43.228;0.108;2023-12-20T01:56:15;10.85;;;8.00;;
84476;SDS011;74700;43.228;0.108;2023-12-20T01:58:45;10.85;;;7.78;;
84476;SDS011;74700;43.228;0.108;2023-12-20T02:01:12;9.40;;;7.65;;
84476;SDS011;74700;43.228;0.108;2023-12-20T02:03:39;12.43;;;8.70;;
84476;SDS011;74700;43.228;0.108;2023-12-20T02:06:05;11.13;;;7.95;;
84476;SDS011;74700;43.228;0.108;2023-12-20T02:08:31;11.68;;;7.63;;
84476;SDS011;74700;43.228;0.108;2023-12-20T02:10:57;12.82;;;8.10;;
84476;SDS011;74700;43.228;0.108;2023-12-20T02:13:23;16.20;;;8.88;;
84476;SDS011;74700;43.228;0.108;2023-12-20T02:15:51;16.30;;;9.38;;
84476;SDS011;74700;43.228;0.108;2023-12-20T02:18:17;12.70;;;8.45;;
84476;SDS011;74700;43.228;0.108;2023-12-20T02:20:43;12.25;;;8.27;;
84476;SDS011;74700;43.228;0.108;2023-12-20T02:23:09;10.45;;;8.32;;
84476;SDS011;74700;43.228;0.108;2023-12-20T02:25:36;11.52;;;8.63;;
84476;SDS011;74700;43.228;0.108;2023-12-20T02:28:02;12.95;;;8.73;;
84476;SDS011;74700;43.228;0.108;2023-12-20T02:30:29;9.75;;;8.68;;
84476;SDS011;74700;43.228;0.108;2023-12-20T02:32:55;14.40;;;8.57;;
84476;SDS011;74700;43.228;0.108;2023-12-20T02:35:21;17.52;;;8.55;;
84476;SDS011;74700;43.228;0.108;2023-12-20T02:37:47;15.48;;;9.82;;
84476;SDS011;74700;43.228;0.108;2023-12-20T02:40:13;13.07;;;9.60;;
84476;SDS011;74700;43.228;0.108;2023-12-20T02:42:39;11.88;;;9.70;;
84476;SDS011;74700;43.228;0.108;2023-12-20T02:45:05;15.50;;;10.32;;
84476;SDS011;74700;43.228;0.108;2023-12-20T02:47:31;20.50;;;9.68;;
84476;SDS011;74700;43.228;0.108;2023-12-20T02:49:57;13.10;;;9.15;;
84476;SDS011;74700;43.228;0.108;2023-12-20T02:52:23;11.35;;;9.38;;
84476;SDS011;74700;43.228;0.108;2023-12-20T02:54:50;10.52;;;9.02;;
84476;SDS011;74700;43.228;0.108;2023-12-20T02:57:16;12.88;;;8.98;;
84476;SDS011;74700;43.228;0.108;2023-12-20T02:59:42;9.20;;;8.18;;
84476;SDS011;74700;43.228;0.108;2023-12-20T03:02:08;8.48;;;7.63;;
84476;SDS011;74700;43.228;0.108;2023-12-20T03:04:34;9.63;;;7.78;;
84476;SDS011;74700;43.228;0.108;2023-12-20T03:07:00;9.57;;;8.00;;
84476;SDS011;74700;43.228;0.108;2023-12-20T03:09:27;11.90;;;8.32;;
84476;SDS011;74700;43.228;0.108;2023-12-20T03:11:53;10.80;;;7.65;;
84476;SDS011;74700;43.228;0.108;2023-12-20T03:14:19;13.68;;;7.13;;
84476;SDS011;74700;43.228;0.108;2023-12-20T03:16:51;11.90;;;8.52;;
84476;SDS011;74700;43.228;0.108;2023-12-20T03:19:17;13.07;;;9.30;;
84476;SDS011;74700;43.228;0.108;2023-12-20T03:21:46;12.15;;;8.48;;
84476;SDS011;74700;43.228;0.108;2023-12-20T03:24:12;10.52;;;8.40;;
84476;SDS011;74700;43.228;0.108;2023-12-20T03:26:38;9.65;;;7.72;;
84476;SDS011;74700;43.228;0.108;2023-12-20T03:29:04;14.93;;;8.40;;
84476;SDS011;74700;43.228;0.108;2023-12-20T03:31:30;12.57;;;8.10;;
84476;SDS011;74700;43.228;0.108;2023-12-20T03:33:56;12.20;;;8.25;;
84476;SDS011;74700;43.228;0.108;2023-12-20T03:36:22;12.55;;;8.65;;
84476;SDS011;74700;43.228;0.108;2023-12-20T03:38:48;12.18;;;8.90;;
84476;SDS011;74700;43.228;0.108;2023-12-20T03:41:14;8.27;;;7.55;;
84476;SDS011;74700;43.228;0.108;2023-12-20T03:43:40;13.02;;;8.00;;
84476;SDS011;74700;43.228;0.108;2023-12-20T03:46:08;11.02;;;8.43;;
84476;SDS011;74700;43.228;0.108;2023-12-20T03:48:34;12.70;;;7.82;;
84476;SDS011;74700;43.228;0.108;2023-12-20T03:51:00;11.40;;;7.90;;
84476;SDS011;74700;43.228;0.108;2023-12-20T03:53:26;8.88;;;7.93;;
84476;SDS011;74700;43.228;0.108;2023-12-20T03:55:52;12.30;;;7.70;;
84476;SDS011;74700;43.228;0.108;2023-12-20T03:58:18;9.80;;;7.95;;
84476;SDS011;74700;43.228;0.108;2023-12-20T04:00:44;7.45;;;6.65;;
84476;SDS011;74700;43.228;0.108;2023-12-20T04:03:10;12.73;;;9.20;;
84476;SDS011;74700;43.228;0.108;2023-12-20T04:05:40;13.10;;;9.93;;
84476;SDS011;74700;43.228;0.108;2023-12-20T04:08:06;9.68;;;8.57;;
84476;SDS011;74700;43.228;0.108;2023-12-20T04:10:33;14.60;;;9.57;;
84476;SDS011;74700;43.228;0.108;2023-12-20T04:12:59;14.35;;;8.82;;
84476;SDS011;74700;43.228;0.108;2023-12-20T04:15:25;14.95;;;8.55;;
84476;SDS011;74700;43.228;0.108;2023-12-20T04:17:51;9.60;;;7.47;;
84476;SDS011;74700;43.228;0.108;2023-12-20T04:20:17;6.30;;;5.70;;
84476;SDS011;74700;43.228;0.108;2023-12-20T04:22:43;5.53;;;4.75;;
84476;SDS011;74700;43.228;0.108;2023-12-20T04:25:09;5.55;;;4.88;;
84476;SDS011;74700;43.228;0.108;2023-12-20T04:27:35;5.32;;;4.57;;
84476;SDS011;74700;43.228;0.108;2023-12-20T04:30:01;4.05;;;3.67;;
84476;SDS011;74700;43.228;0.108;2023-12-20T04:32:27;6.50;;;3.40;;
84476;SDS011;74700;43.228;0.108;2023-12-20T04:34:53;2.75;;;2.55;;
84476;SDS011;74700;43.228;0.108;2023-12-20T04:37:19;2.67;;;2.40;;
84476;SDS011;74700;43.228;0.108;2023-12-20T04:39:45;2.28;;;2.17;;
84476;SDS011;74700;43.228;0.108;2023-12-20T04:42:11;2.60;;;2.40;;
84476;SDS011;74700;43.228;0.108;2023-12-20T04:44:37;2.25;;;2.15;;
84476;SDS011;74700;43.228;0.108;2023-12-20T04:47:03;3.00;;;2.80;;
84476;SDS011;74700;43.228;0.108;2023-12-20T04:49:29;2.35;;;2.20;;
84476;SDS011;74700;43.228;0.108;2023-12-20T04:51:55;3.25;;;2.35;;
84476;SDS011;74700;43.228;0.108;2023-12-20T04:54:21;4.88;;;2.15;;
84476;SDS011;74700;43.228;0.108;2023-12-20T04:56:47;2.20;;;2.10;;
84476;SDS011;74700;43.228;0.108;2023-12-20T04:59:13;2.47;;;2.28;;
84476;SDS011;74700;43.228;0.108;2023-12-20T05:01:40;5.68;;;2.10;;
84476;SDS011;74700;43.228;0.108;2023-12-20T05:04:06;2.28;;;2.05;;
84476;SDS011;74700;43.228;0.108;2023-12-20T05:06:32;2.30;;;2.15;;
84476;SDS011;74700;43.228;0.108;2023-12-20T05:08:58;4.00;;;1.85;;
84476;SDS011;74700;43.228;0.108;2023-12-20T05:11:24;1.80;;;1.80;;
84476;SDS011;74700;43.228;0.108;2023-12-20T05:13:50;2.40;;;2.30;;
84476;SDS011;74700;43.228;0.108;2023-12-20T05:16:16;14.10;;;2.28;;
84476;SDS011;74700;43.228;0.108;2023-12-20T05:18:43;2.15;;;2.05;;
84476;SDS011;74700;43.228;0.108;2023-12-20T05:21:09;2.35;;;2.15;;
84476;SDS011;74700;43.228;0.108;2023-12-20T05:23:35;1.50;;;1.50;;
84476;SDS011;74700;43.228;0.108;2023-12-20T05:26:01;1.70;;;1.70;;
84476;SDS011;74700;43.228;0.108;2023-12-20T05:28:27;1.75;;;1.75;;
84476;SDS011;74700;43.228;0.108;2023-12-20T05:30:53;2.50;;;1.92;;
84476;SDS011;74700;43.228;0.108;2023-12-20T05:33:19;1.75;;;1.65;;
84476;SDS011;74700;43.228;0.108;2023-12-20T05:35:45;2.33;;;2.10;;
84476;SDS011;74700;43.228;0.108;2023-12-20T05:38:11;1.80;;;1.70;;
84476;SDS011;74700;43.228;0.108;2023-12-20T05:40:37;2.17;;;2.08;;
84476;SDS011;74700;43.228;0.108;2023-12-20T05:43:04;1.48;;;1.48;;
84476;SDS011;74700;43.228;0.108;2023-12-20T05:45:30;1.42;;;1.42;;
84476;SDS011;74700;43.228;0.108;2023-12-20T05:47:56;1.90;;;1.80;;
84476;SDS011;74700;43.228;0.108;2023-12-20T05:50:22;1.65;;;1.55;;
84476;SDS011;74700;43.228;0.108;2023-12-20T05:52:48;1.80;;;1.67;;
84476;SDS011;74700;43.228;0.108;2023-12-20T05:55:14;1.98;;;1.88;;
84476;SDS011;74700;43.228;0.108;2023-12-20T05:57:40;1.83;;;1.73;;
84476;SDS011;74700;43.228;0.108;2023-12-20T06:00:08;8.63;;;1.90;;
84476;SDS011;74700;43.228;0.108;2023-12-20T06:02:34;4.32;;;1.83;;
84476;SDS011;74700;43.228;0.108;2023-12-20T06:05:02;3.47;;;1.85;;
84476;SDS011;74700;43.228;0.108;2023-12-20T06:07:28;3.95;;;2.00;;
84476;SDS011;74700;43.228;0.108;2023-12-20T06:09:54;1.88;;;1.77;;
84476;SDS011;74700;43.228;0.108;2023-12-20T06:12:20;1.95;;;1.85;;
84476;SDS011;74700;43.228;0.108;2023-12-20T06:14:46;1.70;;;1.70;;
84476;SDS011;74700;43.228;0.108;2023-12-20T06:17:12;1.90;;;1.80;;
84476;SDS011;74700;43.228;0.108;2023-12-20T06:19:38;3.22;;;1.60;;
84476;SDS011;74700;43.228;0.108;2023-12-20T06:22:04;1.85;;;1.75;;
84476;SDS011;74700;43.228;0.108;2023-12-20T06:24:30;2.15;;;1.95;;
84476;SDS011;74700;43.228;0.108;2023-12-20T06:26:58;2.75;;;1.60;;
84476;SDS011;74700;43.228;0.108;2023-12-20T06:29:24;1.73;;;1.70;;
84476;SDS011;74700;43.228;0.108;2023-12-20T06:31:50;1.95;;;1.80;;
84476;SDS011;74700;43.228;0.108;2023-12-20T06:34:16;3.22;;;2.40;;
84476;SDS011;74700;43.228;0.108;2023-12-20T06:36:42;1.90;;;1.77;;
84476;SDS011;74700;43.228;0.108;2023-12-20T06:39:08;1.90;;;1.80;;
84476;SDS011;74700;43.228;0.108;2023-12-20T06:41:37;1.45;;;1.45;;
84476;SDS011;74700;43.228;0.108;2023-12-20T06:44:03;1.95;;;1.83;;
84476;SDS011;74700;43.228;0.108;2023-12-20T06:46:29;2.40;;;2.20;;
84476;SDS011;74700;43.228;0.108;2023-12-20T06:48:55;2.00;;;1.90;;
84476;SDS011;74700;43.228;0.108;2023-12-20T06:51:21;7.75;;;2.30;;
84476;SDS011;74700;43.228;0.108;2023-12-20T06:53:50;1.85;;;1.75;;
84476;SDS011;74700;43.228;0.108;2023-12-20T06:56:16;2.00;;;1.85;;
84476;SDS011;74700;43.228;0.108;2023-12-20T06:58:42;1.70;;;1.60;;
84476;SDS011;74700;43.228;0.108;2023-12-20T07:01:12;1.90;;;1.80;;
84476;SDS011;74700;43.228;0.108;2023-12-20T07:03:38;1.80;;;1.70;;
84476;SDS011;74700;43.228;0.108;2023-12-20T07:06:05;2.05;;;1.95;;
84476;SDS011;74700;43.228;0.108;2023-12-20T07:08:32;2.70;;;2.50;;
84476;SDS011;74700;43.228;0.108;2023-12-20T07:10:58;2.67;;;2.58;;
84476;SDS011;74700;43.228;0.108;2023-12-20T07:13:24;1.88;;;1.80;;
84476;SDS011;74700;43.228;0.108;2023-12-20T07:15:50;4.05;;;2.25;;
84476;SDS011;74700;43.228;0.108;2023-12-20T07:18:16;2.53;;;2.42;;
84476;SDS011;74700;43.228;0.108;2023-12-20T07:20:42;4.53;;;2.90;;
84476;SDS011;74700;43.228;0.108;2023-12-20T07:23:08;3.47;;;3.17;;
84476;SDS011;74700;43.228;0.108;2023-12-20T07:25:34;3.17;;;2.90;;
84476;SDS011;74700;43.228;0.108;2023-12-20T07:28:00;3.58;;;3.13;;
84476;SDS011;74700;43.228;0.108;2023-12-20T07:30:26;9.80;;;4.68;;
84476;SDS011;74700;43.228;0.108;2023-12-20T07:32:53;5.22;;;3.30;;
84476;SDS011;74700;43.228;0.108;2023-12-20T07:35:19;4.72;;;3.75;;
84476;SDS011;74700;43.228;0.108;2023-12-20T07:37:45;5.13;;;3.10;;
84476;SDS011;74700;43.228;0.108;2023-12-20T07:40:11;2.90;;;2.72;;
84476;SDS011;74700;43.228;0.108;2023-12-20T07:42:37;5.03;;;2.80;;
84476;SDS011;74700;43.228;0.108;2023-12-20T07:45:03;3.60;;;3.30;;
84476;SDS011;74700;43.228;0.108;2023-12-20T07:47:29;2.60;;;2.40;;
84476;SDS011;74700;43.228;0.108;2023-12-20T07:49:55;4.80;;;3.17;;
84476;SDS011;74700;43.228;0.108;2023-12-20T07:52:21;2.38;;;2.20;;
84476;SDS011;74700;43.228;0.108;2023-12-20T07:54:48;4.25;;;2.67;;
84476;SDS011;74700;43.228;0.108;2023-12-20T07:57:14;3.15;;;2.70;;
84476;SDS011;74700;43.228;0.108;2023-12-20T07:59:40;3.13;;;2.92;;
84476;SDS011;74700;43.228;0.108;2023-12-20T08:02:06;9.25;;;3.78;;
84476;SDS011;74700;43.228;0.108;2023-12-20T08:04:32;5.95;;;3.38;;
84476;SDS011;74700;43.228;0.108;2023-12-20T08:06:58;3.40;;;3.17;;
84476;SDS011;74700;43.228;0.108;2023-12-20T08:09:25;6.03;;;3.78;;
84476;SDS011;74700;43.228;0.108;2023-12-20T08:11:51;5.00;;;4.07;;
84476;SDS011;74700;43.228;0.108;2023-12-20T08:14:17;5.28;;;4.78;;
84476;SDS011;74700;43.228;0.108;2023-12-20T08:16:43;5.88;;;3.83;;
84476;SDS011;74700;43.228;0.108;2023-12-20T08:19:09;5.32;;;4.47;;
84476;SDS011;74700;43.228;0.108;2023-12-20T08:21:35;6.72;;;3.80;;
84476;SDS011;74700;43.228;0.108;2023-12-20T08:24:01;5.45;;;4.70;;
84476;SDS011;74700;43.228;0.108;2023-12-20T08:26:27;4.25;;;3.88;;
84476;SDS011;74700;43.228;0.108;2023-12-20T08:28:53;6.45;;;4.05;;
84476;SDS011;74700;43.228;0.108;2023-12-20T08:31:20;7.60;;;4.70;;
84476;SDS011;74700;43.228;0.108;2023-12-20T08:33:46;6.38;;;3.55;;
84476;SDS011;74700;43.228;0.108;2023-12-20T08:36:13;8.30;;;4.20;;
84476;SDS011;74700;43.228;0.108;2023-12-20T08:38:39;5.72;;;4.65;;
84476;SDS011;74700;43.228;0.108;2023-12-20T08:41:05;6.05;;;3.78;;
84476;SDS011;74700;43.228;0.108;2023-12-20T08:43:31;8.05;;;4.00;;
84476;SDS011;74700;43.228;0.108;2023-12-20T08:45:57;5.57;;;3.90;;
84476;SDS011;74700;43.228;0.108;2023-12-20T08:48:23;7.65;;;3.78;;
84476;SDS011;74700;43.228;0.108;2023-12-20T08:50:49;6.40;;;4.25;;
84476;SDS011;74700;43.228;0.108;2023-12-20T08:53:17;10.20;;;3.65;;
84476;SDS011;74700;43.228;0.108;2023-12-20T08:55:43;8.65;;;3.55;;
84476;SDS011;74700;43.228;0.108;2023-12-20T08:58:10;7.18;;;4.47;;
84476;SDS011;74700;43.228;0.108;2023-12-20T09:00:36;10.40;;;5.03;;
84476;SDS011;74700;43.228;0.108;2023-12-20T09:03:02;9.32;;;4.60;;
84476;SDS011;74700;43.228;0.108;2023-12-20T09:05:28;5.30;;;3.63;;
84476;SDS011;74700;43.228;0.108;2023-12-20T09:07:55;5.40;;;3.50;;
84476;SDS011;74700;43.228;0.108;2023-12-20T09:10:21;11.25;;;3.65;;
84476;SDS011;74700;43.228;0.108;2023-12-20T09:12:50;5.15;;;3.20;;
84476;SDS011;74700;43.228;0.108;2023-12-20T09:15:19;5.07;;;3.17;;
84476;SDS011;74700;43.228;0.108;2023-12-20T09:17:45;5.50;;;2.75;;
84476;SDS011;74700;43.228;0.108;2023-12-20T09:20:11;6.97;;;3.20;;
84476;SDS011;74700;43.228;0.108;2023-12-20T09:22:38;4.40;;;3.40;;
84476;SDS011;74700;43.228;0.108;2023-12-20T09:25:05;6.57;;;3.15;;
84476;SDS011;74700;43.228;0.108;2023-12-20T09:27:31;4.65;;;3.33;;
84476;SDS011;74700;43.228;0.108;2023-12-20T09:29:57;6.68;;;3.58;;
84476;SDS011;74700;43.228;0.108;2023-12-20T09:32:23;3.83;;;3.42;;
84476;SDS011;74700;43.228;0.108;2023-12-20T09:34:49;10.18;;;3.05;;
84476;SDS011;74700;43.228;0.108;2023-12-20T09:37:15;6.78;;;3.28;;
84476;SDS011;74700;43.228;0.108;2023-12-20T09:39:41;6.57;;;3.08;;
84476;SDS011;74700;43.228;0.108;2023-12-20T09:42:07;7.05;;;2.90;;
84476;SDS011;74700;43.228;0.108;2023-12-20T09:44:33;6.05;;;3.20;;
84476;SDS011;74700;43.228;0.108;2023-12-20T09:47:01;9.48;;;5.20;;
84476;SDS011;74700;43.228;0.108;2023-12-20T09:49:28;9.25;;;4.03;;
84476;SDS011;74700;43.228;0.108;2023-12-20T09:51:56;6.68;;;3.55;;
84476;SDS011;74700;43.228;0.108;2023-12-20T09:54:22;5.20;;;3.00;;
84476;SDS011;74700;43.228;0.108;2023-12-20T09:56:49;4.53;;;3.10;;
84476;SDS011;74700;43.228;0.108;2023-12-20T09:59:15;14.02;;;3.15;;
84476;SDS011;74700;43.228;0.108;2023-12-20T10:01:41;9.07;;;2.90;;
84476;SDS011;74700;43.228;0.108;2023-12-20T10:04:08;4.63;;;3.40;;
84476;SDS011;74700;43.228;0.108;2023-12-20T10:06:36;3.83;;;2.38;;
84476;SDS011;74700;43.228;0.108;2023-12-20T10:09:02;3.90;;;2.40;;
84476;SDS011;74700;43.228;0.108;2023-12-20T10:11:29;5.78;;;2.65;;
84476;SDS011;74700;43.228;0.108;2023-12-20T10:13:59;6.07;;;2.60;;
84476;SDS011;74700;43.228;0.108;2023-12-20T10:16:28;7.18;;;2.72;;
84476;SDS011;74700;43.228;0.108;2023-12-20T10:18:54;7.18;;;2.75;;
84476;SDS011;74700;43.228;0.108;2023-12-20T10:21:21;7.47;;;3.03;;
84476;SDS011;74700;43.228;0.108;2023-12-20T10:23:48;12.02;;;2.80;;
84476;SDS011;74700;43.228;0.108;2023-12-20T10:26:24;7.05;;;3.08;;
84476;SDS011;74700;43.228;0.108;2023-12-20T10:28:54;5.95;;;2.88;;
84476;SDS011;74700;43.228;0.108;2023-12-20T10:31:27;4.53;;;2.58;;
84476;SDS011;74700;43.228;0.108;2023-12-20T10:33:53;4.85;;;2.67;;
84476;SDS011;74700;43.228;0.108;2023-12-20T10:36:19;2.63;;;2.10;;
84476;SDS011;74700;43.228;0.108;2023-12-20T10:38:46;10.05;;;2.47;;
84476;SDS011;74700;43.228;0.108;2023-12-20T10:41:14;4.72;;;2.25;;
84476;SDS011;74700;43.228;0.108;2023-12-20T10:43:42;4.72;;;2.25;;
84476;SDS011;74700;43.228;0.108;2023-12-20T10:46:08;7.20;;;2.40;;
84476;SDS011;74700;43.228;0.108;2023-12-20T10:48:34;10.00;;;2.60;;
84476;SDS011;74700;43.228;0.108;2023-12-20T10:51:01;8.52;;;2.97;;
84476;SDS011;74700;43.228;0.108;2023-12-20T10:53:27;4.75;;;2.78;;
84476;SDS011;74700;43.228;0.108;2023-12-20T10:55:55;8.02;;;2.88;;
84476;SDS011;74700;43.228;0.108;2023-12-20T10:58:22;15.35;;;2.63;;
84476;SDS011;74700;43.228;0.108;2023-12-20T11:00:49;9.15;;;2.88;;
84476;SDS011;74700;43.228;0.108;2023-12-20T11:03:17;10.27;;;3.30;;
84476;SDS011;74700;43.228;0.108;2023-12-20T11:05:51;7.35;;;2.22;;
84476;SDS011;74700;43.228;0.108;2023-12-20T11:08:28;7.43;;;2.67;;
84476;SDS011;74700;43.228;0.108;2023-12-20T11:11:05;6.40;;;2.22;;
84476;SDS011;74700;43.228;0.108;2023-12-20T11:13:34;10.75;;;3.03;;
84476;SDS011;74700;43.228;0.108;2023-12-20T11:16:02;4.63;;;2.83;;
84476;SDS011;74700;43.228;0.108;2023-12-20T11:18:31;8.18;;;2.58;;
84476;SDS011;74700;43.228;0.108;2023-12-20T11:21:04;6.95;;;2.67;;
84476;SDS011;74700;43.228;0.108;2023-12-20T11:23:31;18.23;;;4.60;;
84476;SDS011;74700;43.228;0.108;2023-12-20T11:26:01;15.43;;;3.08;;
84476;SDS011;74700;43.228;0.108;2023-12-20T11:28:27;14.40;;;3.22;;
84476;SDS011;74700;43.228;0.108;2023-12-20T11:30:55;18.52;;;3.70;;
84476;SDS011;74700;43.228;0.108;2023-12-20T11:33:22;18.83;;;3.40;;
84476;SDS011;74700;43.228;0.108;2023-12-20T11:35:48;25.27;;;3.70;;
84476;SDS011;74700;43.228;0.108;2023-12-20T11:38:14;25.35;;;4.32;;
84476;SDS011;74700;43.228;0.108;2023-12-20T11:40:43;11.48;;;3.13;;
84476;SDS011;74700;43.228;0.108;2023-12-20T11:43:09;18.38;;;3.95;;
84476;SDS011;74700;43.228;0.108;2023-12-20T11:45:35;17.00;;;3.45;;
84476;SDS011;74700;43.228;0.108;2023-12-20T11:48:02;19.35;;;3.55;;
84476;SDS011;74700;43.228;0.108;2023-12-20T11:50:28;16.13;;;4.50;;
84476;SDS011;74700;43.228;0.108;2023-12-20T11:52:55;17.17;;;4.20;;
84476;SDS011;74700;43.228;0.108;2023-12-20T11:55:22;18.70;;;4.05;;
84476;SDS011;74700;43.228;0.108;2023-12-20T11:57:49;24.02;;;3.35;;
84476;SDS011;74700;43.228;0.108;2023-12-20T12:00:15;12.48;;;3.30;;
84476;SDS011;74700;43.228;0.108;2023-12-20T12:02:42;11.65;;;3.33;;
84476;SDS011;74700;43.228;0.108;2023-12-20T12:05:08;20.73;;;3.92;;
84476;SDS011;74700;43.228;0.108;2023-12-20T12:07:34;13.63;;;3.03;;
84476;SDS011;74700;43.228;0.108;2023-12-20T12:10:00;19.88;;;4.10;;
84476;SDS011;74700;43.228;0.108;2023-12-20T12:12:28;16.98;;;3.45;;
84476;SDS011;74700;43.228;0.108;2023-12-20T12:14:55;11.50;;;3.65;;
84476;SDS011;74700;43.228;0.108;2023-12-20T12:17:22;13.13;;;3.85;;
84476;SDS011;74700;43.228;0.108;2023-12-20T12:19:48;18.38;;;4.00;;
84476;SDS011;74700;43.228;0.108;2023-12-20T12:22:14;9.95;;;2.88;;
84476;SDS011;74700;43.228;0.108;2023-12-20T12:24:42;20.10;;;4.50;;
84476;SDS011;74700;43.228;0.108;2023-12-20T12:27:08;19.15;;;4.03;;
84476;SDS011;74700;43.228;0.108;2023-12-20T12:29:34;18.73;;;3.95;;
84476;SDS011;74700;43.228;0.108;2023-12-20T12:32:02;14.52;;;3.83;;
84476;SDS011;74700;43.228;0.108;2023-12-20T12:34:30;20.75;;;3.65;;
84476;SDS011;74700;43.228;0.108;2023-12-20T12:36:56;21.45;;;4.50;;
84476;SDS011;74700;43.228;0.108;2023-12-20T12:39:23;12.05;;;3.50;;
84476;SDS011;74700;43.228;0.108;2023-12-20T12:41:52;10.73;;;3.55;;
84476;SDS011;74700;43.228;0.108;2023-12-20T12:44:18;24.48;;;3.80;;
84476;SDS011;74700;43.228;0.108;2023-12-20T12:46:47;16.70;;;3.97;;
84476;SDS011;74700;43.228;0.108;2023-12-20T12:49:16;15.43;;;4.43;;
84476;SDS011;74700;43.228;0.108;2023-12-20T12:51:42;18.75;;;3.78;;
84476;SDS011;74700;43.228;0.108;2023-12-20T12:54:08;18.60;;;3.72;;
84476;SDS011;74700;43.228;0.108;2023-12-20T12:56:35;18.75;;;4.32;;
84476;SDS011;74700;43.228;0.108;2023-12-20T12:59:01;18.45;;;4.53;;
84476;SDS011;74700;43.228;0.108;2023-12-20T13:01:27;24.40;;;4.13;;
84476;SDS011;74700;43.228;0.108;2023-12-20T13:03:53;11.70;;;3.58;;
84476;SDS011;74700;43.228;0.108;2023-12-20T13:06:19;13.38;;;3.45;;
84476;SDS011;74700;43.228;0.108;2023-12-20T13:08:45;11.40;;;3.30;;
84476;SDS011;74700;43.228;0.108;2023-12-20T13:11:11;13.70;;;3.95;;
84476;SDS011;74700;43.228;0.108;2023-12-20T13:13:38;10.98;;;3.22;;
84476;SDS011;74700;43.228;0.108;2023-12-20T13:16:04;14.40;;;3.17;;
84476;SDS011;74700;43.228;0.108;2023-12-20T13:18:30;13.20;;;3.05;;
84476;SDS011;74700;43.228;0.108;2023-12-20T13:20:56;18.95;;;3.22;;
84476;SDS011;74700;43.228;0.108;2023-12-20T13:23:22;5.53;;;2.55;;
84476;SDS011;74700;43.228;0.108;2023-12-20T13:25:48;5.70;;;2.60;;
84476;SDS011;74700;43.228;0.108;2023-12-20T13:28:14;9.18;;;2.90;;
84476;SDS011;74700;43.228;0.108;2023-12-20T13:30:40;6.55;;;2.72;;
84476;SDS011;74700;43.228;0.108;2023-12-20T13:33:06;9.05;;;2.65;;
84476;SDS011;74700;43.228;0.108;2023-12-20T13:35:33;6.63;;;2.35;;
84476;SDS011;74700;43.228;0.108;2023-12-20T13:38:00;10.32;;;2.92;;
84476;SDS011;74700;43.228;0.108;2023-12-20T13:40:26;7.90;;;2.30;;
84476;SDS011;74700;43.228;0.108;2023-12-20T13:42:53;9.57;;;2.97;;
84476;SDS011;74700;43.228;0.108;2023-12-20T13:45:20;11.15;;;3.03;;
84476;SDS011;74700;43.228;0.108;2023-12-20T13:47:46;7.53;;;2.70;;
84476;SDS011;74700;43.228;0.108;2023-12-20T13:50:12;10.52;;;2.85;;
84476;SDS011;74700;43.228;0.108;2023-12-20T13:52:38;5.55;;;2.30;;
84476;SDS011;74700;43.228;0.108;2023-12-20T13:55:04;10.55;;;3.00;;
84476;SDS011;74700;43.228;0.108;2023-12-20T13:57:32;9.40;;;2.90;;
84476;SDS011;74700;43.228;0.108;2023-12-20T13:59:59;11.07;;;3.00;;
84476;SDS011;74700;43.228;0.108;2023-12-20T14:02:25;6.97;;;2.38;;
84476;SDS011;74700;43.228;0.108;2023-12-20T14:04:52;8.45;;;3.05;;
84476;SDS011;74700;43.228;0.108;2023-12-20T14:07:18;7.80;;;2.70;;
84476;SDS011;74700;43.228;0.108;2023-12-20T14:09:44;11.07;;;2.78;;
84476;SDS011;74700;43.228;0.108;2023-12-20T14:12:13;11.07;;;3.03;;
84476;SDS011;74700;43.228;0.108;2023-12-20T14:14:39;8.70;;;3.60;;
84476;SDS011;74700;43.228;0.108;2023-12-20T14:17:05;5.28;;;3.20;;
84476;SDS011;74700;43.228;0.108;2023-12-20T14:19:32;6.28;;;2.25;;
84476;SDS011;74700;43.228;0.108;2023-12-20T14:21:58;10.60;;;3.80;;
84476;SDS011;74700;43.228;0.108;2023-12-20T14:24:26;9.68;;;3.47;;
84476;SDS011;74700;43.228;0.108;2023-12-20T14:26:52;9.98;;;4.28;;
84476;SDS011;74700;43.228;0.108;2023-12-20T14:29:18;9.02;;;3.67;;
84476;SDS011;74700;43.228;0.108;2023-12-20T14:31:44;7.05;;;3.72;;
84476;SDS011;74700;43.228;0.108;2023-12-20T14:34:10;6.55;;;2.38;;
84476;SDS011;74700;43.228;0.108;2023-12-20T14:36:37;7.38;;;3.45;;